Terminal Aerodrome Forecast
Issued by NWS

Home | Current Version | Previous Version | Text Only | Print | Product List | Glossary On
Versions: 1 2 3 4 5 6 7 8 9 10 11 12
439
FTUS42 KMLB 100533
TAFSUA
TAF
KSUA 100533Z 1006/1106 29011KT P6SM BKN050 OVC250
     FM101400 30013G20KT P6SM FEW050 BKN250
     FM110100 30006KT P6SM SKC=

USA.gov is the U.S. government's official web portal to all federal, state and local government web resources and services.